Time;durP1;ratioP1;P1;durP2;ratioP2;P2;SDS_P1;SDS_P2;PMS_P1;PMS_P2;Temp;Humidity;BMP_temperature;BMP_pressure;BME280_temperature;BME280_humidity;BME280_pressure;Samples;Min_cycle;Max_cycle;Signal;HPM_P1;HPM_P2
2021/05/18 02:49:22;;;;;;;2.80;2.70;;;10.90;98.60;;;;;;4970606;28;87590;-85
2021/05/18 02:51:47;;;;;;;2.88;2.67;;;10.90;98.30;;;;;;4970646;28;86970;-86
2021/05/18 02:54:16;;;;;;;3.97;3.78;;;10.90;98.30;;;;;;4970524;28;87593;-86
2021/05/18 02:59:20;;;;;;;4.70;4.50;;;11.00;98.30;;;;;;4967263;28;86678;-85
2021/05/18 03:01:52;;;;;;;2.83;2.72;;;11.00;98.10;;;;;;4969045;28;87081;-83
2021/05/18 03:04:18;;;;;;;5.63;5.35;;;11.00;98.70;;;;;;4963980;28;87259;-83
2021/05/18 03:06:47;;;;;;;3.20;3.10;;;11.00;98.50;;;;;;4967993;28;87335;-84
2021/05/18 03:09:13;;;;;;;5.18;4.93;;;10.90;99.00;;;;;;4968393;28;86919;-84
2021/05/18 03:11:41;;;;;;;4.18;4.07;;;10.90;99.20;;;;;;4968451;28;86851;-85
2021/05/18 03:14:08;;;;;;;4.80;4.50;;;11.00;99.80;;;;;;4966871;28;87867;-86
2021/05/18 03:16:36;;;;;;;3.97;3.88;;;10.90;99.50;;;;;;4965026;28;87139;-85
2021/05/18 03:19:02;;;;;;;3.25;3.15;;;10.90;99.80;;;;;;4966481;28;86901;-86
2021/05/18 03:21:28;;;;;;;2.97;2.55;;;10.90;99.90;;;;;;4957598;28;86386;-85
2021/05/18 03:23:55;;;;;;;2.00;1.92;;;10.90;99.90;;;;;;4968039;28;86692;-86
2021/05/18 03:26:22;;;;;;;2.97;2.88;;;10.90;99.90;;;;;;4967165;28;87887;-86
2021/05/18 03:28:54;;;;;;;3.45;3.30;;;10.90;99.90;;;;;;4968322;28;87360;-85
2021/05/18 03:36:48;;;;;;;2.92;2.83;;;10.90;99.90;;;;;;4976086;28;86172;-86
2021/05/18 03:39:14;;;;;;;2.47;2.30;;;10.90;99.90;;;;;;4971478;28;88300;-85
2021/05/18 03:41:53;;;;;;;2.55;2.45;;;10.90;99.90;;;;;;4975461;28;86925;-85
2021/05/18 03:52:33;;;;;;;2.58;2.47;;;11.00;99.90;;;;;;4985266;28;86733;-86
2021/05/18 04:03:05;;;;;;;2.30;2.20;;;11.10;99.90;;;;;;4948197;28;87141;-83
2021/05/18 04:19:14;;;;;;;2.60;2.50;;;11.20;99.90;;;;;;4968143;28;87064;-85
2021/05/18 04:51:08;;;;;;;2.80;2.50;;;11.10;99.90;;;;;;4971679;28;87002;-85
2021/05/18 04:59:08;;;;;;;2.78;2.58;;;11.00;99.90;;;;;;4966935;28;87629;-86
2021/05/18 05:04:23;;;;;;;2.13;2.03;;;11.00;99.90;;;;;;4959335;28;86569;-87
2021/05/18 05:07:00;;;;;;;2.75;2.55;;;11.00;99.90;;;;;;4973964;28;86889;-83
2021/05/18 05:14:36;;;;;;;2.53;2.33;;;11.10;99.90;;;;;;4966487;28;87092;-86
2021/05/18 05:17:02;;;;;;;4.32;2.50;;;11.10;99.90;;;;;;4969046;28;86824;-87
2021/05/18 05:19:29;;;;;;;3.08;2.78;;;11.10;99.90;;;;;;4969162;28;87569;-86
2021/05/18 05:21:57;;;;;;;2.70;2.60;;;11.10;99.90;;;;;;4955663;28;87028;-85
2021/05/18 05:24:37;;;;;;;2.42;2.33;;;11.00;99.90;;;;;;4981216;28;87838;-86
2021/05/18 05:27:03;;;;;;;2.50;2.40;;;11.00;99.90;;;;;;4973231;28;87293;-84
2021/05/18 05:29:30;;;;;;;2.60;2.50;;;11.10;99.90;;;;;;4969643;28;87514;-86
2021/05/18 05:31:56;;;;;;;2.75;2.42;;;11.10;99.90;;;;;;4964812;28;86968;-84
2021/05/18 05:34:22;;;;;;;3.20;3.10;;;11.10;99.90;;;;;;4974441;28;86921;-84
2021/05/18 05:36:48;;;;;;;3.83;3.63;;;11.20;99.90;;;;;;4968790;28;86847;-88
2021/05/18 05:39:23;;;;;;;2.88;2.78;;;11.20;99.90;;;;;;4965448;28;87719;-85
2021/05/18 05:41:53;;;;;;;3.40;3.20;;;11.30;99.90;;;;;;4960205;28;87413;-86
2021/05/18 05:44:20;;;;;;;4.63;4.22;;;11.30;99.90;;;;;;4967961;28;86625;-84
2021/05/18 05:46:45;;;;;;;6.13;5.15;;;11.30;99.90;;;;;;4966995;28;87263;-86
2021/05/18 05:49:11;;;;;;;4.60;3.38;;;11.40;99.90;;;;;;4959289;28;89652;-86
2021/05/18 05:51:37;;;;;;;4.70;4.20;;;11.40;99.90;;;;;;4968329;28;88854;-86
2021/05/18 05:54:03;;;;;;;7.10;5.13;;;11.50;99.90;;;;;;4967088;28;86950;-81
2021/05/18 05:56:29;;;;;;;9.07;6.80;;;11.50;99.90;;;;;;4967373;28;86854;-83
2021/05/18 05:58:55;;;;;;;6.47;5.80;;;11.60;99.90;;;;;;4967952;28;87693;-84
2021/05/18 06:01:21;;;;;;;4.22;3.83;;;11.70;99.90;;;;;;4966412;28;87212;-86
2021/05/18 06:03:47;;;;;;;3.67;3.38;;;11.70;99.90;;;;;;4965219;28;86650;-85
2021/05/18 06:06:15;;;;;;;2.88;2.78;;;11.70;99.90;;;;;;4963148;28;85930;-85
2021/05/18 06:08:43;;;;;;;3.60;3.38;;;11.60;99.90;;;;;;4955715;28;87007;-85
2021/05/18 06:11:19;;;;;;;3.40;3.20;;;11.70;99.90;;;;;;4960041;28;87818;-84
2021/05/18 06:17:05;;;;;;;3.78;3.58;;;11.80;99.90;;;;;;4964618;28;86741;-83
2021/05/18 06:41:43;;;;;;;3.80;3.53;;;12.10;99.90;;;;;;4962747;28;87979;-85
2021/05/18 06:49:50;;;;;;;4.90;4.60;;;12.50;99.90;;;;;;4915056;28;87298;-85
2021/05/18 06:52:16;;;;;;;4.30;4.00;;;12.80;99.90;;;;;;4923651;28;87514;-85
2021/05/18 06:54:42;;;;;;;3.30;3.10;;;13.10;99.90;;;;;;4936794;28;87062;-84
2021/05/18 06:57:08;;;;;;;3.60;3.40;;;13.30;99.90;;;;;;4967307;28;87411;-85
2021/05/18 07:02:18;;;;;;;4.72;4.32;;;13.80;99.90;;;;;;4964383;28;87293;-85
2021/05/18 07:04:43;;;;;;;4.47;4.20;;;14.00;99.90;;;;;;4964226;28;86997;-86
2021/05/18 07:07:15;;;;;;;6.13;5.72;;;14.10;99.90;;;;;;4968190;28;87934;-85
2021/05/18 07:09:41;;;;;;;5.22;5.03;;;14.10;99.90;;;;;;4967809;28;86948;-84
2021/05/18 07:12:07;;;;;;;6.85;4.25;;;14.20;99.90;;;;;;4968511;28;87085;-86
2021/05/18 07:14:33;;;;;;;4.32;3.92;;;14.20;99.90;;;;;;4967931;28;87051;-85
2021/05/18 07:16:59;;;;;;;4.97;4.70;;;14.30;99.90;;;;;;4968771;28;87222;-84
2021/05/18 07:19:25;;;;;;;6.93;6.63;;;14.20;99.90;;;;;;4968873;28;87055;-87
2021/05/18 07:21:51;;;;;;;5.72;5.43;;;14.20;99.90;;;;;;4967702;28;87236;-87
2021/05/18 07:24:21;;;;;;;4.80;4.60;;;13.70;99.90;;;;;;4966590;28;86877;-84
2021/05/18 07:26:49;;;;;;;;;;;13.60;99.90;;;;;;4963863;28;87011;-84
2021/05/18 07:29:30;;;;;;;4.88;4.53;;;13.60;99.90;;;;;;4971235;28;86681;-85
2021/05/18 07:31:56;;;;;;;4.13;3.85;;;13.80;99.90;;;;;;4958998;28;88823;-84
2021/05/18 07:34:31;;;;;;;6.30;6.00;;;14.00;99.90;;;;;;4961310;28;90915;-85
2021/05/18 07:36:57;;;;;;;3.75;3.58;;;14.20;99.50;;;;;;4969430;28;86915;-86
2021/05/18 07:39:23;;;;;;;3.63;3.53;;;14.40;96.80;;;;;;4965343;28;87026;-83
2021/05/18 07:41:49;;;;;;;7.90;7.50;;;14.70;96.60;;;;;;4964848;28;88637;-86
2021/05/18 07:44:15;;;;;;;5.68;5.47;;;14.80;94.70;;;;;;4964415;28;87336;-87
2021/05/18 07:46:41;;;;;;;5.28;5.07;;;14.60;94.10;;;;;;4962415;28;86369;-87
2021/05/18 08:07:33;;;;;;;10.38;9.98;;;14.70;92.00;;;;;;4975224;28;86302;-86
2021/05/18 08:12:30;;;;;;;6.82;6.53;;;14.80;90.90;;;;;;4983428;28;87224;-86
2021/05/18 08:17:37;;;;;;;7.25;6.95;;;14.70;91.30;;;;;;4962717;28;86935;-84
2021/05/18 08:20:36;;;;;;;6.03;5.82;;;14.90;91.40;;;;;;4956103;28;86454;-84
2021/05/18 08:46:34;;;;;;;7.32;7.03;;;15.10;90.90;;;;;;4961091;28;89180;-85
2021/05/18 09:48:34;;;;;;;3.45;3.35;;;13.20;99.90;;;;;;4963592;28;87908;-82
2021/05/18 10:36:10;;;;;;;6.97;6.78;;;15.40;92.60;;;;;;4963593;28;87207;-87
2021/05/18 10:38:41;;;;;;;5.55;5.28;;;15.90;91.20;;;;;;4967278;28;87107;-83
2021/05/18 10:41:06;;;;;;;4.85;4.65;;;15.80;92.30;;;;;;4962812;28;87872;-83
2021/05/18 10:43:35;;;;;;;4.68;4.47;;;15.80;91.80;;;;;;4967755;28;86855;-85
2021/05/18 10:46:07;;;;;;;4.28;4.07;;;15.70;92.00;;;;;;4969655;28;87173;-84
2021/05/18 10:48:34;;;;;;;5.43;5.22;;;15.70;91.70;;;;;;4970315;28;87404;-85
2021/05/18 10:51:22;;;;;;;7.60;7.30;;;15.70;92.60;;;;;;4969211;28;86886;-82
2021/05/18 10:54:19;;;;;;;9.18;8.88;;;15.60;90.90;;;;;;4969296;28;87212;-83
2021/05/18 10:56:55;;;;;;;4.05;3.92;;;15.30;92.20;;;;;;4968613;28;87330;-85
2021/05/18 10:59:22;;;;;;;3.63;3.53;;;15.30;92.70;;;;;;4967122;28;86382;-86
2021/05/18 11:01:49;;;;;;;3.53;3.42;;;15.30;92.10;;;;;;4960956;28;86926;-83
2021/05/18 11:04:15;;;;;;;4.05;3.95;;;15.30;92.10;;;;;;4966086;28;86785;-84
2021/05/18 11:06:50;;;;;;;4.35;4.25;;;15.30;92.70;;;;;;4964819;28;88004;-85
2021/05/18 11:09:20;;;;;;;5.90;5.68;;;15.30;92.60;;;;;;4966486;28;87395;-84
2021/05/18 11:11:48;;;;;;;6.23;6.00;;;15.30;93.20;;;;;;4965202;28;87064;-85
2021/05/18 11:14:16;;;;;;;5.63;5.43;;;15.30;94.10;;;;;;4969708;28;87066;-86
2021/05/18 11:16:42;;;;;;;4.35;4.25;;;15.30;93.20;;;;;;4965297;28;87740;-85
2021/05/18 11:19:13;;;;;;;5.28;5.07;;;15.20;91.70;;;;;;4970209;28;87978;-85
2021/05/18 11:21:54;;;;;;;7.10;6.85;;;15.10;92.10;;;;;;4960050;28;86419;-84
2021/05/18 11:24:19;;;;;;;4.63;4.32;;;15.00;91.60;;;;;;4966375;28;86124;-85
2021/05/18 11:26:49;;;;;;;4.55;4.25;;;15.20;92.20;;;;;;4943529;28;90510;-84
2021/05/18 11:29:15;;;;;;;7.93;7.63;;;15.50;91.50;;;;;;4960500;28;87392;-85
2021/05/18 11:31:42;;;;;;;6.00;5.78;;;15.60;90.10;;;;;;4963704;28;87662;-84
2021/05/18 11:34:08;;;;;;;9.18;8.88;;;15.70;91.70;;;;;;4958492;28;86381;-84
2021/05/18 11:36:38;;;;;;;6.70;6.40;;;15.80;90.40;;;;;;4964390;28;87274;-83
2021/05/18 11:39:09;;;;;;;7.60;7.30;;;16.10;88.60;;;;;;4964396;28;86754;-84
2021/05/18 11:41:40;;;;;;;5.50;5.30;;;16.50;85.60;;;;;;4955486;28;86996;-84
2021/05/18 11:44:08;;;;;;;6.07;5.88;;;17.10;85.80;;;;;;4961385;28;86931;-86
2021/05/18 11:46:35;;;;;;;6.50;6.30;;;17.10;79.80;;;;;;4963581;28;86969;-86
2021/05/18 11:49:11;;;;;;;5.57;5.38;;;17.50;81.30;;;;;;4948465;28;87514;-88
2021/05/18 11:52:03;;;;;;;10.88;10.38;;;18.00;78.80;;;;;;4945220;28;87433;-86
2021/05/18 11:54:34;;;;;;;13.48;12.88;;;18.70;75.90;;;;;;4947370;28;86986;-87
2021/05/18 11:57:01;;;;;;;18.10;17.40;;;19.30;77.30;;;;;;4946966;28;89238;-85
2021/05/18 11:59:27;;;;;;;16.75;16.13;;;19.80;75.40;;;;;;4946252;28;88531;-84
2021/05/18 12:02:01;;;;;;;9.30;9.00;;;20.20;73.00;;;;;;4947078;28;87004;-84
2021/05/18 12:04:28;;;;;;;9.23;8.82;;;20.90;72.10;;;;;;4948092;28;87075;-84
2021/05/18 12:07:06;;;;;;;9.82;9.52;;;22.60;68.30;;;;;;4946803;28;87536;-84
2021/05/18 12:09:34;;;;;;;11.07;10.48;;;24.00;63.20;;;;;;4955053;28;87025;-84
2021/05/18 12:12:11;;;;;;;11.85;11.23;;;24.60;58.10;;;;;;4961827;28;86931;-83
2021/05/18 12:14:49;;;;;;;15.88;15.27;;;25.00;57.90;;;;;;4954879;28;86091;-85
2021/05/18 12:17:25;;;;;;;18.38;17.65;;;24.60;56.80;;;;;;4968490;28;86755;-83
2021/05/18 12:19:51;;;;;;;20.23;19.48;;;24.10;55.30;;;;;;4966508;28;87136;-85
2021/05/18 12:22:17;;;;;;;9.82;9.43;;;;;;;;;;4966081;28;87635;-83
2021/05/18 12:24:43;;;;;;;8.73;8.43;;;;;;;;;;4969205;28;86241;-82
2021/05/18 12:27:10;;;;;;;11.60;11.10;;;21.90;56.90;;;;;;4969673;28;86505;-83
2021/05/18 12:29:37;;;;;;;9.70;9.30;;;21.40;60.30;;;;;;4965046;28;86949;-83
2021/05/18 12:32:18;;;;;;;7.22;6.93;;;19.50;66.90;;;;;;4967211;28;86378;-82
2021/05/18 12:34:47;;;;;;;13.57;12.98;;;19.40;61.70;;;;;;4972565;28;86140;-84
2021/05/18 12:37:14;;;;;;;9.80;9.30;;;19.40;69.50;;;;;;4983492;28;86458;-83
2021/05/18 12:39:42;;;;;;;7.07;6.78;;;19.40;72.40;;;;;;4966565;28;87371;-85
2021/05/18 12:42:14;;;;;;;7.80;7.50;;;18.60;73.80;;;;;;4967730;28;86511;-87
2021/05/18 12:45:01;;;;;;;6.53;6.32;;;18.80;67.10;;;;;;4959892;28;86221;-83
2021/05/18 12:47:39;;;;;;;8.45;8.15;;;18.80;62.60;;;;;;4978544;28;89381;-84
2021/05/18 12:50:11;;;;;;;8.10;7.80;;;18.90;63.10;;;;;;4985520;28;87681;-83
2021/05/18 12:52:38;;;;;;;9.02;8.73;;;19.20;72.50;;;;;;4986425;28;86225;-84
2021/05/18 12:55:23;;;;;;;6.82;6.53;;;19.90;70.40;;;;;;4985351;28;86607;-84
2021/05/18 12:57:50;;;;;;;9.13;8.63;;;22.20;66.20;;;;;;4976081;28;88426;-84
2021/05/18 13:00:21;;;;;;;10.45;10.05;;;23.10;60.10;;;;;;4980292;28;88281;-84
2021/05/18 13:02:48;;;;;;;12.10;11.57;;;24.40;59.10;;;;;;4983983;28;86207;-84
2021/05/18 13:05:30;;;;;;;8.52;8.13;;;24.40;51.60;;;;;;4982926;28;86584;-83
2021/05/18 13:08:10;;;;;;;8.27;7.97;;;24.70;51.60;;;;;;4980669;28;87321;-84
2021/05/18 13:10:48;;;;;;;6.38;6.07;;;24.80;52.60;;;;;;4984279;28;86734;-82
2021/05/18 13:13:13;;;;;;;13.18;12.63;;;24.80;53.10;;;;;;4964111;28;88009;-83
2021/05/18 13:15:40;;;;;;;17.50;16.80;;;24.60;52.10;;;;;;4979240;28;86219;-82
2021/05/18 13:18:09;;;;;;;18.02;17.33;;;24.40;53.00;;;;;;4980762;28;88316;-83
2021/05/18 13:20:48;;;;;;;10.68;10.25;;;23.90;53.60;;;;;;4983399;28;87045;-86
2021/05/18 13:23:53;;;;;;;10.38;9.98;;;23.40;50.40;;;;;;4980703;28;86165;-86
2021/05/18 13:28:45;;;;;;;8.50;8.18;;;22.80;56.80;;;;;;4962492;28;86823;-84
2021/05/18 13:31:11;;;;;;;7.63;7.22;;;22.30;53.80;;;;;;4955447;28;87077;-84
2021/05/18 13:33:37;;;;;;;6.03;5.82;;;;;;;;;;4960504;28;87204;-83
2021/05/18 13:36:04;;;;;;;4.95;4.75;;;21.10;57.90;;;;;;4950614;28;87094;-83
2021/05/18 13:38:33;;;;;;;7.68;7.38;;;20.30;63.80;;;;;;4952889;28;87903;-83
2021/05/18 13:41:00;;;;;;;10.18;9.68;;;20.30;61.70;;;;;;4960456;28;87851;-84
2021/05/18 13:43:26;;;;;;;12.18;11.68;;;19.60;64.80;;;;;;4958493;28;87074;-82
2021/05/18 13:45:52;;;;;;;8.85;8.40;;;;;;;;;;4951900;28;87105;-82
2021/05/18 13:48:17;;;;;;;13.02;12.18;;;17.60;69.80;;;;;;4956396;28;87291;-81
2021/05/18 13:50:43;;;;;;;9.43;8.93;;;16.50;75.70;;;;;;4951124;28;88091;-80
2021/05/18 13:53:09;;;;;;;6.45;6.15;;;15.20;79.90;;;;;;4948747;28;87581;-79
2021/05/18 13:55:35;;;;;;;7.50;7.00;;;14.10;85.30;;;;;;4952383;28;86743;-81
2021/05/18 13:58:01;;;;;;;6.32;5.82;;;14.00;83.90;;;;;;4950771;28;87131;-81
2021/05/18 14:00:27;;;;;;;8.27;7.88;;;14.00;89.80;;;;;;4954554;28;86962;-80
2021/05/18 14:02:53;;;;;;;7.95;7.57;;;13.60;88.60;;;;;;4954780;28;87590;-80
2021/05/18 14:05:23;;;;;;;7.05;6.70;;;13.50;90.30;;;;;;4958160;28;87041;-80
2021/05/18 14:10:39;;;;;;;6.60;6.30;;;13.40;94.10;;;;;;4960077;28;86920;-84
2021/05/18 14:13:04;;;;;;;6.32;6.03;;;13.40;93.40;;;;;;4934622;28;86771;-84
2021/05/18 14:15:30;;;;;;;5.13;4.82;;;13.50;94.30;;;;;;4955304;28;87000;-81
2021/05/18 14:17:56;;;;;;;22.38;11.35;;;13.40;95.70;;;;;;4958055;28;87050;-82
2021/05/18 14:20:22;;;;;;;8.18;6.63;;;13.40;97.90;;;;;;4954656;28;87045;-82
2021/05/18 14:22:48;;;;;;;6.70;6.20;;;13.40;99.50;;;;;;4947474;28;86907;-80
2021/05/18 14:25:14;;;;;;;4.78;4.57;;;13.40;99.60;;;;;;4951132;28;87438;-79
2021/05/18 14:27:41;;;;;;;6.72;6.43;;;13.60;99.80;;;;;;4952537;28;88016;-78
2021/05/18 14:30:11;;;;;;;4.20;3.90;;;13.60;99.60;;;;;;4956909;28;88322;-79
2021/05/18 14:32:38;;;;;;;5.78;5.38;;;13.80;98.70;;;;;;4951472;28;86993;-82
2021/05/18 14:35:06;;;;;;;4.22;4.03;;;14.20;98.90;;;;;;4954921;28;87134;-82
2021/05/18 14:37:32;;;;;;;6.32;6.03;;;14.50;98.20;;;;;;4959822;28;86974;-82
2021/05/18 14:45:17;;;;;;;5.53;5.20;;;14.10;99.20;;;;;;4958269;28;86423;-82
2021/05/18 14:58:23;;;;;;;5.78;5.57;;;14.60;97.30;;;;;;4963056;28;87572;-81
2021/05/18 15:00:49;;;;;;;6.05;5.75;;;14.80;97.20;;;;;;4950732;28;86948;-83
2021/05/18 15:03:14;;;;;;;6.63;6.32;;;15.10;98.10;;;;;;4945120;28;87855;-84
2021/05/18 15:05:41;;;;;;;7.32;7.03;;;15.60;97.90;;;;;;4938133;28;87737;-84
2021/05/18 15:08:07;;;;;;;5.72;5.43;;;16.00;96.00;;;;;;4946367;28;87250;-83
2021/05/18 15:10:34;;;;;;;9.20;8.80;;;16.10;93.30;;;;;;4950603;28;86862;-83
2021/05/18 15:13:00;;;;;;;9.75;9.40;;;16.10;90.50;;;;;;4955487;28;86978;-83
2021/05/18 15:15:27;;;;;;;5.28;4.88;;;16.40;91.10;;;;;;4940658;28;87021;-84
2021/05/18 15:17:57;;;;;;;5.65;5.43;;;16.50;90.90;;;;;;4943554;28;87982;-84
2021/05/18 15:20:23;;;;;;;5.33;5.13;;;17.20;91.10;;;;;;4944978;28;87335;-83
2021/05/18 15:22:49;;;;;;;9.45;9.05;;;17.80;90.50;;;;;;4942951;28;86955;-84
2021/05/18 15:25:16;;;;;;;10.63;10.23;;;18.20;84.10;;;;;;4941336;28;87117;-82
2021/05/18 15:27:42;;;;;;;10.77;10.38;;;18.50;84.80;;;;;;4937340;28;87427;-82
2021/05/18 15:30:10;;;;;;;8.70;8.40;;;19.00;84.00;;;;;;4945390;28;87573;-82
2021/05/18 15:32:37;;;;;;;8.00;7.55;;;19.30;79.20;;;;;;4942946;28;87121;-83
2021/05/18 15:35:06;;;;;;;8.85;8.45;;;19.70;81.30;;;;;;4946509;28;86335;-85
2021/05/18 15:37:32;;;;;;;8.13;7.82;;;20.00;78.00;;;;;;4938552;28;88334;-85
2021/05/18 15:39:58;;;;;;;9.85;9.52;;;20.10;72.00;;;;;;4935012;28;87054;-82
2021/05/18 15:42:24;;;;;;;8.85;8.40;;;20.10;69.40;;;;;;4939887;28;88985;-83
2021/05/18 15:44:50;;;;;;;9.45;9.05;;;20.10;68.90;;;;;;4945170;28;87026;-82
2021/05/18 15:47:16;;;;;;;11.13;10.73;;;20.30;65.30;;;;;;4935127;28;88122;-83
2021/05/18 15:49:42;;;;;;;12.45;11.98;;;20.50;64.20;;;;;;4937574;28;86841;-83
2021/05/18 15:52:08;;;;;;;10.98;10.48;;;20.80;63.10;;;;;;4932558;28;86939;-83
2021/05/18 15:54:34;;;;;;;12.23;11.75;;;20.90;62.10;;;;;;4932662;28;87035;-84
2021/05/18 15:57:00;;;;;;;9.32;8.82;;;21.00;66.30;;;;;;4935795;28;87152;-81
2021/05/18 15:59:27;;;;;;;9.07;8.50;;;20.90;60.80;;;;;;4941466;28;86317;-83
2021/05/18 16:01:54;;;;;;;8.73;8.35;;;20.50;63.80;;;;;;4936975;28;86912;-83
2021/05/18 16:04:22;;;;;;;5.57;5.28;;;20.20;61.60;;;;;;4939343;28;86991;-82
2021/05/18 16:06:48;;;;;;;5.88;5.45;;;19.70;60.50;;;;;;4937233;28;89152;-85
2021/05/18 16:09:14;;;;;;;7.75;7.35;;;;;;;;;;4925829;28;88394;-83
2021/05/18 16:11:41;;;;;;;4.55;4.25;;;19.30;61.70;;;;;;4938773;28;86902;-81
2021/05/18 16:14:08;;;;;;;5.78;5.50;;;18.30;65.20;;;;;;4931767;28;86998;-83
2021/05/18 16:16:34;;;;;;;6.88;6.47;;;17.60;64.80;;;;;;4931723;28;87496;-84
2021/05/18 16:19:00;;;;;;;7.95;7.60;;;17.00;67.50;;;;;;4927862;28;87905;-84
2021/05/18 16:21:27;;;;;;;8.02;7.60;;;16.60;68.50;;;;;;4932883;28;86967;-83
2021/05/18 16:23:56;;;;;;;8.80;8.13;;;16.40;70.20;;;;;;4933595;28;86257;-83
2021/05/18 16:26:25;;;;;;;5.03;4.82;;;16.60;67.90;;;;;;4931749;28;88010;-83
2021/05/18 16:28:52;;;;;;;5.18;4.97;;;15.90;73.70;;;;;;4932608;28;87034;-82
2021/05/18 16:31:19;;;;;;;8.43;8.02;;;16.20;74.10;;;;;;4948014;28;87145;-80
2021/05/18 16:33:45;;;;;;;6.88;6.57;;;15.90;74.40;;;;;;4947221;28;86332;-80
2021/05/18 16:36:16;;;;;;;5.53;5.22;;;15.80;77.60;;;;;;4941918;28;86991;-84
2021/05/18 16:38:43;;;;;;;6.82;6.45;;;16.00;78.70;;;;;;4942021;28;86592;-84
2021/05/18 16:41:09;;;;;;;5.85;5.53;;;16.00;81.40;;;;;;4949305;28;86096;-85
2021/05/18 16:43:35;;;;;;;5.57;5.18;;;15.90;81.80;;;;;;4960082;28;86542;-81
2021/05/18 16:46:03;;;;;;;6.10;5.80;;;15.40;81.70;;;;;;4938976;28;87195;-81
2021/05/18 16:48:30;;;;;;;5.50;5.30;;;15.20;83.20;;;;;;4931389;28;86241;-82
2021/05/18 16:50:58;;;;;;;7.05;6.55;;;15.30;82.30;;;;;;4935292;28;86882;-81
2021/05/18 16:53:24;;;;;;;5.50;5.20;;;15.30;83.20;;;;;;4933736;28;86617;-82
2021/05/18 16:55:50;;;;;;;9.95;9.05;;;15.90;82.80;;;;;;4947209;28;88261;-84
2021/05/18 16:58:19;;;;;;;7.85;7.50;;;15.50;82.20;;;;;;4945214;28;87040;-81
2021/05/18 17:00:46;;;;;;;7.68;7.28;;;15.40;81.60;;;;;;4930527;28;86951;-82
2021/05/18 17:03:12;;;;;;;11.23;10.63;;;15.60;83.70;;;;;;4934057;28;86894;-84
2021/05/18 17:05:38;;;;;;;11.40;9.13;;;15.50;82.60;;;;;;4929939;28;87101;-82
2021/05/18 17:08:04;;;;;;;9.40;8.40;;;15.50;83.30;;;;;;4931798;28;87298;-82
2021/05/18 17:10:35;;;;;;;6.60;6.00;;;15.60;84.00;;;;;;4942481;28;86620;-82
2021/05/18 17:13:01;;;;;;;6.40;6.00;;;15.70;83.80;;;;;;4942805;28;85423;-82
2021/05/18 17:15:28;;;;;;;5.05;4.65;;;15.80;83.70;;;;;;4933000;28;87018;-82
2021/05/18 17:17:55;;;;;;;5.63;5.25;;;15.90;84.10;;;;;;4935285;28;87405;-82
2021/05/18 17:20:23;;;;;;;6.20;5.78;;;15.90;85.10;;;;;;4936192;28;87671;-83
2021/05/18 17:22:48;;;;;;;8.38;7.90;;;16.00;82.90;;;;;;4936469;28;86930;-82
2021/05/18 17:25:15;;;;;;;8.65;8.35;;;16.00;81.80;;;;;;4936385;28;88080;-82
2021/05/18 17:27:41;;;;;;;5.85;5.43;;;15.90;78.70;;;;;;4927860;28;86757;-82
2021/05/18 17:30:12;;;;;;;6.25;5.90;;;15.90;78.80;;;;;;4931756;28;86817;-83
2021/05/18 17:32:38;;;;;;;5.43;5.03;;;15.90;78.80;;;;;;4930172;28;87045;-81
2021/05/18 17:35:08;;;;;;;7.88;7.57;;;15.90;78.20;;;;;;4944206;28;86652;-81
2021/05/18 17:37:34;;;;;;;6.90;6.55;;;16.00;78.10;;;;;;4947054;28;87963;-84
2021/05/18 17:40:00;;;;;;;6.50;6.20;;;15.90;77.00;;;;;;4931440;28;87457;-84
2021/05/18 17:42:26;;;;;;;6.00;5.70;;;15.80;75.20;;;;;;4937282;28;87771;-83
2021/05/18 17:44:57;;;;;;;5.93;5.55;;;15.70;75.80;;;;;;4930929;28;88335;-83
2021/05/18 17:47:23;;;;;;;8.00;7.55;;;15.50;75.20;;;;;;4930100;28;88485;-83
2021/05/18 17:49:50;;;;;;;9.00;8.60;;;15.50;75.90;;;;;;4937239;28;86864;-82
2021/05/18 17:52:15;;;;;;;6.53;6.13;;;15.30;76.40;;;;;;4934139;28;87043;-84
2021/05/18 17:54:43;;;;;;;7.97;7.57;;;15.30;76.70;;;;;;4929892;28;87651;-83
2021/05/18 17:57:09;;;;;;;7.00;6.60;;;15.20;77.50;;;;;;4932059;28;87208;-83
2021/05/18 17:59:35;;;;;;;5.63;5.32;;;15.10;78.80;;;;;;4934363;28;87203;-86
2021/05/18 18:02:01;;;;;;;6.57;6.20;;;15.00;79.30;;;;;;4942445;28;86180;-86
2021/05/18 18:04:27;;;;;;;7.97;7.53;;;14.90;79.50;;;;;;4940782;28;87746;-86
2021/05/18 18:06:53;;;;;;;8.43;8.13;;;14.80;80.00;;;;;;4944308;28;86999;-86
2021/05/18 18:09:20;;;;;;;9.95;9.35;;;14.70;81.30;;;;;;4934129;28;87736;-83
2021/05/18 18:11:46;;;;;;;7.18;6.78;;;14.60;81.00;;;;;;4930854;28;86878;-85
2021/05/18 18:14:12;;;;;;;8.50;8.10;;;14.50;81.20;;;;;;4935093;28;87159;-84
2021/05/18 18:16:38;;;;;;;8.75;8.25;;;14.40;81.90;;;;;;4937535;28;90095;-83
2021/05/18 18:19:04;;;;;;;5.05;4.85;;;14.40;82.50;;;;;;4942363;28;86857;-85
2021/05/18 18:21:30;;;;;;;6.47;6.18;;;14.30;83.40;;;;;;4937313;28;87063;-85
2021/05/18 18:23:56;;;;;;;6.53;6.13;;;14.30;83.80;;;;;;4936086;28;88246;-84
2021/05/18 18:26:24;;;;;;;6.00;5.57;;;14.10;85.20;;;;;;4929628;28;87315;-84
2021/05/18 18:28:49;;;;;;;5.22;4.93;;;14.00;86.20;;;;;;4937733;28;86913;-84
2021/05/18 18:31:15;;;;;;;8.63;8.02;;;13.80;90.00;;;;;;4934152;28;86908;-82
2021/05/18 18:33:41;;;;;;;7.78;7.32;;;13.70;90.70;;;;;;4938162;28;87977;-83
2021/05/18 18:36:07;;;;;;;7.30;6.80;;;13.60;90.80;;;;;;4927743;28;88152;-83
2021/05/18 18:38:33;;;;;;;8.25;7.55;;;13.50;90.50;;;;;;4934576;28;87028;-83
2021/05/18 18:40:59;;;;;;;8.75;8.05;;;13.50;90.20;;;;;;4934496;28;86277;-83
2021/05/18 18:43:25;;;;;;;8.05;7.55;;;13.50;90.20;;;;;;4936634;28;87516;-83
2021/05/18 18:45:51;;;;;;;7.05;6.47;;;13.50;90.20;;;;;;4934842;28;86993;-85
2021/05/18 18:48:19;;;;;;;6.68;6.28;;;13.50;90.20;;;;;;4933419;28;86642;-83
2021/05/18 18:50:54;;;;;;;7.18;6.78;;;13.50;90.80;;;;;;4933370;28;86358;-84
2021/05/18 18:56:04;;;;;;;6.93;6.43;;;13.30;91.20;;;;;;4945393;28;86968;-83
2021/05/18 18:58:30;;;;;;;6.28;5.75;;;13.30;91.20;;;;;;4935416;28;87810;-84
2021/05/18 19:00:57;;;;;;;7.82;7.32;;;13.30;91.50;;;;;;4934035;28;87061;-83
2021/05/18 19:03:28;;;;;;;7.80;7.30;;;12.60;91.70;;;;;;4939937;28;86905;-82
2021/05/18 19:08:46;;;;;;;5.88;5.43;;;13.10;92.70;;;;;;4935239;28;86630;-80
2021/05/18 19:13:57;;;;;;;5.25;4.85;;;13.00;93.10;;;;;;4929161;28;86889;-82
2021/05/18 19:16:22;;;;;;;5.32;4.90;;;13.00;93.20;;;;;;4932827;28;87082;-83
2021/05/18 19:18:48;;;;;;;6.43;6.03;;;12.90;93.40;;;;;;4932651;28;87000;-80
2021/05/18 19:21:14;;;;;;;5.60;5.15;;;12.80;93.60;;;;;;4929634;28;87055;-81
2021/05/18 19:23:40;;;;;;;5.10;4.63;;;12.80;93.60;;;;;;4936362;28;87967;-82
2021/05/18 19:26:06;;;;;;;5.30;4.97;;;12.80;93.80;;;;;;4941820;28;87974;-81
2021/05/18 19:28:33;;;;;;;5.63;5.22;;;12.80;94.00;;;;;;4946160;28;86557;-81
2021/05/18 19:31:00;;;;;;;4.55;4.25;;;12.80;94.30;;;;;;4944305;28;87141;-80
2021/05/18 19:33:27;;;;;;;5.10;4.75;;;12.80;95.10;;;;;;4942850;28;87438;-83
2021/05/18 19:49:15;;;;;;;8.48;7.68;;;12.80;95.30;;;;;;4931133;28;87881;-83
2021/05/18 19:51:47;;;;;;;7.45;6.75;;;12.70;95.80;;;;;;4934860;28;87064;-83
2021/05/18 19:54:24;;;;;;;6.22;5.65;;;12.70;96.10;;;;;;4936517;28;87161;-83
2021/05/18 20:20:46;;;;;;;4.57;4.28;;;12.50;99.30;;;;;;4939947;28;86811;-84
2021/05/18 20:23:12;;;;;;;5.43;4.93;;;12.50;99.60;;;;;;4940281;28;87242;-84
2021/05/18 20:25:38;;;;;;;6.95;5.78;;;12.50;99.60;;;;;;4934091;28;87252;-84
2021/05/18 20:28:03;;;;;;;6.63;6.03;;;12.50;99.90;;;;;;4939120;28;87249;-85
2021/05/18 20:30:29;;;;;;;5.53;5.03;;;12.40;99.80;;;;;;4933833;28;86914;-84
2021/05/18 20:32:55;;;;;;;5.32;4.90;;;12.40;99.90;;;;;;4941778;28;86109;-84
2021/05/18 20:35:32;;;;;;;5.38;4.93;;;12.30;99.90;;;;;;4942632;28;87285;-84
2021/05/18 20:40:42;;;;;;;6.03;5.03;;;12.40;99.90;;;;;;4936915;28;87505;-83
2021/05/18 20:43:08;;;;;;;6.03;5.43;;;12.30;99.90;;;;;;4949345;28;87003;-84
2021/05/18 20:45:34;;;;;;;6.70;5.20;;;12.40;99.90;;;;;;4946697;28;86943;-83
2021/05/18 20:47:59;;;;;;;6.05;5.05;;;12.40;99.90;;;;;;4949565;28;87025;-82
2021/05/18 20:50:26;;;;;;;4.30;3.90;;;12.40;99.90;;;;;;4949097;28;87055;-83
2021/05/18 20:52:52;;;;;;;3.72;3.42;;;12.40;99.90;;;;;;4940628;28;87304;-84
2021/05/18 20:55:18;;;;;;;4.93;3.17;;;12.30;99.90;;;;;;4939251;28;87626;-82
2021/05/18 20:57:44;;;;;;;4.18;3.72;;;12.30;99.90;;;;;;4937189;28;86903;-84
2021/05/18 21:00:13;;;;;;;3.38;3.17;;;12.10;99.90;;;;;;4932630;28;86646;-84
2021/05/18 21:02:39;;;;;;;3.17;2.97;;;11.90;99.90;;;;;;4935663;28;87035;-84
2021/05/18 21:05:06;;;;;;;3.95;3.75;;;11.80;99.90;;;;;;4949573;28;88072;-83
2021/05/18 21:07:48;;;;;;;4.10;3.70;;;11.60;99.90;;;;;;4942653;28;87009;-84
2021/05/18 21:10:22;;;;;;;3.33;2.70;;;11.50;99.90;;;;;;4934130;28;86206;-84
2021/05/18 21:15:48;;;;;;;3.10;2.90;;;11.20;99.90;;;;;;4933229;28;87298;-83
2021/05/18 21:18:19;;;;;;;2.80;2.60;;;11.10;99.90;;;;;;4935014;28;86875;-84
2021/05/18 21:20:45;;;;;;;3.03;2.30;;;11.10;99.90;;;;;;4931921;28;86968;-83